sensor_id;sensor_type;location;lat;lon;timestamp;pressure;altitude;pressure_sealevel;temperature;humidity
40730;BME280;26418;50.070;8.436;2023-11-22T00:00:40;100700.28;;;5.04;84.77
40730;BME280;26418;50.070;8.436;2023-11-22T00:03:06;100703.84;;;4.93;84.52
40730;BME280;26418;50.070;8.436;2023-11-22T00:05:31;100703.34;;;4.79;84.51
40730;BME280;26418;50.070;8.436;2023-11-22T00:07:57;100700.00;;;4.72;84.66
40730;BME280;26418;50.070;8.436;2023-11-22T00:10:22;100709.34;;;4.69;85.33
40730;BME280;26418;50.070;8.436;2023-11-22T00:12:49;100707.63;;;4.63;84.99
40730;BME280;26418;50.070;8.436;2023-11-22T00:15:14;100705.00;;;4.51;85.99
40730;BME280;26418;50.070;8.436;2023-11-22T00:17:44;100710.59;;;4.50;85.75
40730;BME280;26418;50.070;8.436;2023-11-22T00:20:10;100717.50;;;4.46;85.98
40730;BME280;26418;50.070;8.436;2023-11-22T00:22:35;100719.91;;;4.47;85.83
40730;BME280;26418;50.070;8.436;2023-11-22T00:25:01;100729.97;;;4.40;84.75
40730;BME280;26418;50.070;8.436;2023-11-22T00:27:28;100728.84;;;4.36;85.36
40730;BME280;26418;50.070;8.436;2023-11-22T00:29:55;100730.69;;;4.35;85.03
40730;BME280;26418;50.070;8.436;2023-11-22T00:32:21;100740.00;;;4.33;84.28
40730;BME280;26418;50.070;8.436;2023-11-22T00:34:46;100731.06;;;4.27;85.03
40730;BME280;26418;50.070;8.436;2023-11-22T00:37:13;100736.53;;;4.20;84.79
40730;BME280;26418;50.070;8.436;2023-11-22T00:39:39;100730.38;;;4.20;85.22
40730;BME280;26418;50.070;8.436;2023-11-22T00:42:05;100732.16;;;4.14;84.14
40730;BME280;26418;50.070;8.436;2023-11-22T00:44:30;100731.72;;;4.05;84.21
40730;BME280;26418;50.070;8.436;2023-11-22T00:46:56;100746.56;;;4.13;84.71
40730;BME280;26418;50.070;8.436;2023-11-22T00:49:23;100750.09;;;4.14;84.57
40730;BME280;26418;50.070;8.436;2023-11-22T00:51:49;100750.09;;;4.14;84.70
40730;BME280;26418;50.070;8.436;2023-11-22T00:54:16;100737.06;;;4.05;84.19
40730;BME280;26418;50.070;8.436;2023-11-22T00:56:42;100739.75;;;4.05;84.18
40730;BME280;26418;50.070;8.436;2023-11-22T00:59:07;100753.34;;;4.04;84.40
40730;BME280;26418;50.070;8.436;2023-11-22T01:01:34;100741.16;;;3.96;85.08
40730;BME280;26418;50.070;8.436;2023-11-22T01:04:00;100745.47;;;3.97;85.11
40730;BME280;26418;50.070;8.436;2023-11-22T01:06:25;100756.28;;;3.90;85.15
40730;BME280;26418;50.070;8.436;2023-11-22T01:08:51;100745.81;;;3.89;85.38
40730;BME280;26418;50.070;8.436;2023-11-22T01:11:17;100758.03;;;3.85;85.35
40730;BME280;26418;50.070;8.436;2023-11-22T01:13:42;100743.38;;;3.75;85.26
40730;BME280;26418;50.070;8.436;2023-11-22T01:16:11;100755.47;;;3.78;86.60
40730;BME280;26418;50.070;8.436;2023-11-22T01:18:38;100741.75;;;3.74;86.95
40730;BME280;26418;50.070;8.436;2023-11-22T01:21:04;100754.66;;;3.77;87.05
40730;BME280;26418;50.070;8.436;2023-11-22T01:23:31;100764.22;;;3.73;87.06
40730;BME280;26418;50.070;8.436;2023-11-22T01:25:59;100774.44;;;3.76;85.98
40730;BME280;26418;50.070;8.436;2023-11-22T01:28:26;100775.50;;;3.75;85.86
40730;BME280;26418;50.070;8.436;2023-11-22T01:30:53;100771.78;;;3.76;85.31
40730;BME280;26418;50.070;8.436;2023-11-22T01:33:20;100770.81;;;3.83;84.89
40730;BME280;26418;50.070;8.436;2023-11-22T01:35:45;100772.59;;;3.77;85.05
40730;BME280;26418;50.070;8.436;2023-11-22T01:38:11;100782.72;;;3.75;84.65
40730;BME280;26418;50.070;8.436;2023-11-22T01:40:44;100768.06;;;3.66;83.73
40730;BME280;26418;50.070;8.436;2023-11-22T01:43:19;100788.53;;;3.72;84.32
40730;BME280;26418;50.070;8.436;2023-11-22T01:45:44;100789.69;;;3.64;84.36
40730;BME280;26418;50.070;8.436;2023-11-22T01:48:11;100791.69;;;3.69;84.50
40730;BME280;26418;50.070;8.436;2023-11-22T01:50:38;100801.09;;;3.71;83.85
40730;BME280;26418;50.070;8.436;2023-11-22T01:53:07;100805.16;;;3.74;83.49
40730;BME280;26418;50.070;8.436;2023-11-22T01:55:33;100791.88;;;3.67;82.54
40730;BME280;26418;50.070;8.436;2023-11-22T01:58:00;100803.63;;;3.66;83.21
40730;BME280;26418;50.070;8.436;2023-11-22T02:00:32;100806.31;;;3.66;83.09
40730;BME280;26418;50.070;8.436;2023-11-22T02:02:57;100813.09;;;3.69;83.45
40730;BME280;26418;50.070;8.436;2023-11-22T02:05:24;100805.25;;;3.67;82.58
40730;BME280;26418;50.070;8.436;2023-11-22T02:07:49;100807.38;;;3.65;81.60
40730;BME280;26418;50.070;8.436;2023-11-22T02:10:15;100814.81;;;3.63;82.36
40730;BME280;26418;50.070;8.436;2023-11-22T02:12:41;100810.97;;;3.59;82.57
40730;BME280;26418;50.070;8.436;2023-11-22T02:15:09;100816.19;;;3.54;81.47
40730;BME280;26418;50.070;8.436;2023-11-22T02:17:34;100824.91;;;3.49;82.30
40730;BME280;26418;50.070;8.436;2023-11-22T02:20:01;100825.25;;;3.53;82.45
40730;BME280;26418;50.070;8.436;2023-11-22T02:22:31;100835.97;;;3.53;82.10
40730;BME280;26418;50.070;8.436;2023-11-22T02:24:57;100839.09;;;3.61;81.41
40730;BME280;26418;50.070;8.436;2023-11-22T02:27:22;100837.03;;;3.64;80.74
40730;BME280;26418;50.070;8.436;2023-11-22T02:29:48;100846.91;;;3.63;80.03
40730;BME280;26418;50.070;8.436;2023-11-22T02:32:15;100845.53;;;3.72;78.84
40730;BME280;26418;50.070;8.436;2023-11-22T02:34:41;100842.28;;;3.70;79.39
40730;BME280;26418;50.070;8.436;2023-11-22T02:37:06;100843.75;;;3.66;79.71
40730;BME280;26418;50.070;8.436;2023-11-22T02:39:54;100847.13;;;3.61;79.67
40730;BME280;26418;50.070;8.436;2023-11-22T02:42:22;100845.19;;;3.69;78.66
40730;BME280;26418;50.070;8.436;2023-11-22T02:44:48;100828.63;;;3.60;78.65
40730;BME280;26418;50.070;8.436;2023-11-22T02:47:13;100821.91;;;3.57;78.71
40730;BME280;26418;50.070;8.436;2023-11-22T02:49:39;100806.53;;;3.53;79.11
40730;BME280;26418;50.070;8.436;2023-11-22T02:52:05;100813.63;;;3.47;79.52
40730;BME280;26418;50.070;8.436;2023-11-22T02:54:31;100806.28;;;3.42;80.04
40730;BME280;26418;50.070;8.436;2023-11-22T02:56:56;100804.22;;;3.44;79.61
40730;BME280;26418;50.070;8.436;2023-11-22T02:59:22;100816.53;;;3.45;79.49
40730;BME280;26418;50.070;8.436;2023-11-22T03:01:47;100815.34;;;3.41;79.84
40730;BME280;26418;50.070;8.436;2023-11-22T03:04:13;100828.84;;;3.35;80.09
40730;BME280;26418;50.070;8.436;2023-11-22T03:06:39;100823.72;;;3.33;80.48
40730;BME280;26418;50.070;8.436;2023-11-22T03:09:05;100836.03;;;3.34;80.52
40730;BME280;26418;50.070;8.436;2023-11-22T03:11:31;100836.38;;;3.26;80.56
40730;BME280;26418;50.070;8.436;2023-11-22T03:13:57;100846.81;;;3.27;80.33
40730;BME280;26418;50.070;8.436;2023-11-22T03:16:22;100846.25;;;3.25;80.01
40730;BME280;26418;50.070;8.436;2023-11-22T03:18:49;100857.41;;;3.22;80.86
40730;BME280;26418;50.070;8.436;2023-11-22T03:21:16;100868.44;;;3.26;81.29
40730;BME280;26418;50.070;8.436;2023-11-22T03:23:42;100867.84;;;3.24;81.32
40730;BME280;26418;50.070;8.436;2023-11-22T03:26:08;100869.28;;;3.26;81.26
40730;BME280;26418;50.070;8.436;2023-11-22T03:28:34;100868.31;;;3.21;81.46
40730;BME280;26418;50.070;8.436;2023-11-22T03:31:00;100874.78;;;3.13;81.91
40730;BME280;26418;50.070;8.436;2023-11-22T03:33:34;100859.44;;;3.08;82.43
40730;BME280;26418;50.070;8.436;2023-11-22T03:35:59;100877.59;;;3.06;82.47
40730;BME280;26418;50.070;8.436;2023-11-22T03:38:25;100887.16;;;2.95;82.86
40730;BME280;26418;50.070;8.436;2023-11-22T03:40:51;100891.25;;;2.98;83.29
40730;BME280;26418;50.070;8.436;2023-11-22T03:43:17;100882.03;;;2.94;82.87
40730;BME280;26418;50.070;8.436;2023-11-22T03:45:42;100892.66;;;3.01;82.64
40730;BME280;26418;50.070;8.436;2023-11-22T03:48:08;100895.53;;;2.99;82.98
40730;BME280;26418;50.070;8.436;2023-11-22T03:50:33;100890.28;;;2.92;83.30
40730;BME280;26418;50.070;8.436;2023-11-22T03:52:59;100900.50;;;2.95;83.53
40730;BME280;26418;50.070;8.436;2023-11-22T03:55:24;100910.75;;;2.98;81.78
40730;BME280;26418;50.070;8.436;2023-11-22T03:57:50;100913.38;;;3.05;81.58
40730;BME280;26418;50.070;8.436;2023-11-22T04:00:16;100913.81;;;3.02;81.29
40730;BME280;26418;50.070;8.436;2023-11-22T04:02:41;100923.31;;;2.98;81.82
40730;BME280;26418;50.070;8.436;2023-11-22T04:05:07;100924.56;;;2.95;81.54
40730;BME280;26418;50.070;8.436;2023-11-22T04:07:33;100927.69;;;2.92;81.83
40730;BME280;26418;50.070;8.436;2023-11-22T04:09:58;100933.41;;;2.96;81.99
40730;BME280;26418;50.070;8.436;2023-11-22T04:12:24;100941.19;;;2.97;81.75
40730;BME280;26418;50.070;8.436;2023-11-22T04:14:50;100934.97;;;2.85;82.20
40730;BME280;26418;50.070;8.436;2023-11-22T04:17:17;100943.19;;;2.83;82.97
40730;BME280;26418;50.070;8.436;2023-11-22T04:19:42;100952.06;;;2.84;83.34
40730;BME280;26418;50.070;8.436;2023-11-22T04:22:08;100955.38;;;2.79;83.34
40730;BME280;26418;50.070;8.436;2023-11-22T04:24:33;100964.88;;;2.75;83.81
40730;BME280;26418;50.070;8.436;2023-11-22T04:26:59;100971.72;;;2.71;84.07
40730;BME280;26418;50.070;8.436;2023-11-22T04:29:24;100967.03;;;2.66;84.49
40730;BME280;26418;50.070;8.436;2023-11-22T04:31:50;100962.97;;;2.64;84.43
40730;BME280;26418;50.070;8.436;2023-11-22T04:34:15;100972.56;;;2.65;84.63
40730;BME280;26418;50.070;8.436;2023-11-22T04:36:41;100963.00;;;2.57;84.87
40730;BME280;26418;50.070;8.436;2023-11-22T04:39:06;100967.09;;;2.60;84.91
40730;BME280;26418;50.070;8.436;2023-11-22T04:41:33;100962.25;;;2.50;85.19
40730;BME280;26418;50.070;8.436;2023-11-22T04:43:59;100960.03;;;2.47;85.36
40730;BME280;26418;50.070;8.436;2023-11-22T04:46:25;100968.03;;;2.47;85.64
40730;BME280;26418;50.070;8.436;2023-11-22T04:48:51;100964.00;;;2.38;86.07
40730;BME280;26418;50.070;8.436;2023-11-22T04:51:17;100960.22;;;2.27;86.07
40730;BME280;26418;50.070;8.436;2023-11-22T04:53:42;100964.75;;;2.26;85.96
40730;BME280;26418;50.070;8.436;2023-11-22T04:56:09;100978.75;;;2.22;86.32
40730;BME280;26418;50.070;8.436;2023-11-22T04:58:35;100973.22;;;2.16;86.67
40730;BME280;26418;50.070;8.436;2023-11-22T05:01:01;100976.34;;;2.13;86.99
40730;BME280;26418;50.070;8.436;2023-11-22T05:03:27;100959.41;;;2.01;87.09
40730;BME280;26418;50.070;8.436;2023-11-22T05:05:53;100978.22;;;2.06;87.37
40730;BME280;26418;50.070;8.436;2023-11-22T05:08:18;100987.88;;;2.07;87.68
40730;BME280;26418;50.070;8.436;2023-11-22T05:10:44;100989.75;;;2.07;87.89
40730;BME280;26418;50.070;8.436;2023-11-22T05:13:09;100983.84;;;1.98;87.94
40730;BME280;26418;50.070;8.436;2023-11-22T05:15:36;100993.47;;;1.99;88.26
40730;BME280;26418;50.070;8.436;2023-11-22T05:18:02;101003.94;;;2.00;88.44
40730;BME280;26418;50.070;8.436;2023-11-22T05:20:27;101011.97;;;2.00;88.77
40730;BME280;26418;50.070;8.436;2023-11-22T05:22:53;101006.44;;;1.95;88.77
40730;BME280;26418;50.070;8.436;2023-11-22T05:25:19;101010.34;;;1.93;88.99
40730;BME280;26418;50.070;8.436;2023-11-22T05:27:44;101007.47;;;1.94;89.18
40730;BME280;26418;50.070;8.436;2023-11-22T05:30:10;101012.00;;;1.94;89.50
40730;BME280;26418;50.070;8.436;2023-11-22T05:32:36;101004.25;;;1.85;89.49
40730;BME280;26418;50.070;8.436;2023-11-22T05:35:02;101004.66;;;1.82;89.46
40730;BME280;26418;50.070;8.436;2023-11-22T05:37:28;101019.25;;;1.80;89.14
40730;BME280;26418;50.070;8.436;2023-11-22T05:39:54;101028.13;;;1.73;89.20
40730;BME280;26418;50.070;8.436;2023-11-22T05:42:20;101018.34;;;1.61;88.89
40730;BME280;26418;50.070;8.436;2023-11-22T05:44:52;101029.00;;;1.61;89.29
40730;BME280;26418;50.070;8.436;2023-11-22T05:47:18;101042.13;;;1.62;89.95
40730;BME280;26418;50.070;8.436;2023-11-22T05:49:43;101040.88;;;1.65;89.99
40730;BME280;26418;50.070;8.436;2023-11-22T05:52:09;101041.31;;;1.62;90.11
40730;BME280;26418;50.070;8.436;2023-11-22T05:54:34;101045.00;;;1.61;90.12
40730;BME280;26418;50.070;8.436;2023-11-22T05:57:00;101051.94;;;1.68;89.93
40730;BME280;26418;50.070;8.436;2023-11-22T05:59:25;101052.56;;;1.64;88.06
40730;BME280;26418;50.070;8.436;2023-11-22T06:01:51;101049.09;;;1.63;87.51
40730;BME280;26418;50.070;8.436;2023-11-22T06:04:17;101070.59;;;1.68;86.30
40730;BME280;26418;50.070;8.436;2023-11-22T06:06:42;101060.38;;;1.65;84.58
40730;BME280;26418;50.070;8.436;2023-11-22T06:09:08;101064.28;;;1.63;84.09
40730;BME280;26418;50.070;8.436;2023-11-22T06:11:35;101064.69;;;1.60;84.47
40730;BME280;26418;50.070;8.436;2023-11-22T06:14:01;101070.00;;;1.66;83.77
40730;BME280;26418;50.070;8.436;2023-11-22T06:16:27;101080.03;;;1.71;83.54
40730;BME280;26418;50.070;8.436;2023-11-22T06:18:53;101085.72;;;1.81;82.09
40730;BME280;26418;50.070;8.436;2023-11-22T06:21:24;101086.31;;;1.83;81.67
40730;BME280;26418;50.070;8.436;2023-11-22T06:23:53;101107.06;;;1.81;81.35
40730;BME280;26418;50.070;8.436;2023-11-22T06:26:20;101108.09;;;1.80;81.04
40730;BME280;26418;50.070;8.436;2023-11-22T06:28:46;101114.03;;;1.82;80.70
40730;BME280;26418;50.070;8.436;2023-11-22T06:31:14;101126.34;;;1.83;79.80
40730;BME280;26418;50.070;8.436;2023-11-22T06:33:40;101113.84;;;1.84;79.95
40730;BME280;26418;50.070;8.436;2023-11-22T06:36:05;101111.59;;;1.74;80.23
40730;BME280;26418;50.070;8.436;2023-11-22T06:38:31;101116.69;;;1.82;80.09
40730;BME280;26418;50.070;8.436;2023-11-22T06:40:56;101117.94;;;1.80;79.58
40730;BME280;26418;50.070;8.436;2023-11-22T06:43:22;101122.66;;;1.78;80.12
40730;BME280;26418;50.070;8.436;2023-11-22T06:45:48;101119.59;;;1.81;79.40
40730;BME280;26418;50.070;8.436;2023-11-22T06:48:14;101109.78;;;1.75;78.96
40730;BME280;26418;50.070;8.436;2023-11-22T06:50:39;101106.09;;;1.69;79.29
40730;BME280;26418;50.070;8.436;2023-11-22T06:53:05;101102.03;;;1.60;79.76
40730;BME280;26418;50.070;8.436;2023-11-22T06:55:31;101106.13;;;1.55;80.26
40730;BME280;26418;50.070;8.436;2023-11-22T06:57:58;101109.47;;;1.51;80.64
40730;BME280;26418;50.070;8.436;2023-11-22T07:00:24;101115.59;;;1.51;81.01
40730;BME280;26418;50.070;8.436;2023-11-22T07:02:52;101127.50;;;1.49;81.72
40730;BME280;26418;50.070;8.436;2023-11-22T07:05:18;101143.66;;;1.61;81.12
40730;BME280;26418;50.070;8.436;2023-11-22T07:07:44;101151.44;;;1.55;80.75
40730;BME280;26418;50.070;8.436;2023-11-22T07:10:10;101161.94;;;1.50;81.13
40730;BME280;26418;50.070;8.436;2023-11-22T07:12:37;101154.78;;;1.44;81.49
40730;BME280;26418;50.070;8.436;2023-11-22T07:15:03;101165.63;;;1.49;82.42
40730;BME280;26418;50.070;8.436;2023-11-22T07:17:31;101156.81;;;1.49;82.68
40730;BME280;26418;50.070;8.436;2023-11-22T07:19:58;101164.44;;;1.45;81.93
40730;BME280;26418;50.070;8.436;2023-11-22T07:22:26;101157.06;;;1.40;81.91
40730;BME280;26418;50.070;8.436;2023-11-22T07:24:52;101158.06;;;1.46;82.62
40730;BME280;26418;50.070;8.436;2023-11-22T07:27:19;101155.81;;;1.43;82.13
40730;BME280;26418;50.070;8.436;2023-11-22T07:29:45;101168.28;;;1.49;82.66
40730;BME280;26418;50.070;8.436;2023-11-22T07:32:11;101163.75;;;1.56;81.93
40730;BME280;26418;50.070;8.436;2023-11-22T07:34:38;101156.38;;;1.59;81.83
40730;BME280;26418;50.070;8.436;2023-11-22T07:37:05;101167.66;;;1.67;81.73
40730;BME280;26418;50.070;8.436;2023-11-22T07:39:33;101168.25;;;1.69;84.59
40730;BME280;26418;50.070;8.436;2023-11-22T07:42:01;101157.09;;;1.86;84.75
40730;BME280;26418;50.070;8.436;2023-11-22T07:44:27;101157.94;;;1.86;81.65
40730;BME280;26418;50.070;8.436;2023-11-22T07:46:53;101149.09;;;1.86;81.06
40730;BME280;26418;50.070;8.436;2023-11-22T07:49:19;101149.88;;;1.93;79.45
40730;BME280;26418;50.070;8.436;2023-11-22T07:51:45;101149.06;;;1.93;79.00
40730;BME280;26418;50.070;8.436;2023-11-22T07:54:11;101153.63;;;1.85;79.29
40730;BME280;26418;50.070;8.436;2023-11-22T07:56:42;101157.34;;;1.78;79.38
40730;BME280;26418;50.070;8.436;2023-11-22T07:59:12;101149.16;;;1.79;79.26
40730;BME280;26418;50.070;8.436;2023-11-22T08:01:38;101154.91;;;1.76;79.06
40730;BME280;26418;50.070;8.436;2023-11-22T08:04:04;101145.06;;;1.70;79.40
40730;BME280;26418;50.070;8.436;2023-11-22T08:06:31;101152.00;;;1.78;79.02
40730;BME280;26418;50.070;8.436;2023-11-22T08:08:58;101161.75;;;2.04;87.74
40730;BME280;26418;50.070;8.436;2023-11-22T08:11:27;101163.25;;;2.32;89.46
40730;BME280;26418;50.070;8.436;2023-11-22T08:13:54;101159.59;;;2.58;89.37
40730;BME280;26418;50.070;8.436;2023-11-22T08:16:27;101166.72;;;2.71;78.44
40730;BME280;26418;50.070;8.436;2023-11-22T08:18:53;101169.53;;;2.76;85.20
40730;BME280;26418;50.070;8.436;2023-11-22T08:21:19;101164.97;;;2.83;79.90
40730;BME280;26418;50.070;8.436;2023-11-22T08:23:47;101167.75;;;2.70;79.61
40730;BME280;26418;50.070;8.436;2023-11-22T08:26:14;101171.91;;;2.91;80.70
40730;BME280;26418;50.070;8.436;2023-11-22T08:28:40;101181.09;;;2.95;82.35
40730;BME280;26418;50.070;8.436;2023-11-22T08:31:05;101169.56;;;3.02;81.25
40730;BME280;26418;50.070;8.436;2023-11-22T08:33:37;101168.94;;;2.99;79.90
40730;BME280;26418;50.070;8.436;2023-11-22T08:36:04;101168.56;;;2.96;76.56
40730;BME280;26418;50.070;8.436;2023-11-22T08:38:30;101178.69;;;2.87;75.14
40730;BME280;26418;50.070;8.436;2023-11-22T08:41:01;101181.63;;;2.79;74.45
40730;BME280;26418;50.070;8.436;2023-11-22T08:43:27;101199.94;;;2.75;74.91
40730;BME280;26418;50.070;8.436;2023-11-22T08:45:52;101197.50;;;2.74;75.11
40730;BME280;26418;50.070;8.436;2023-11-22T08:48:18;101199.16;;;2.75;73.93
40730;BME280;26418;50.070;8.436;2023-11-22T08:50:44;101194.41;;;2.77;77.81
40730;BME280;26418;50.070;8.436;2023-11-22T08:53:10;101201.41;;;3.03;84.53
40730;BME280;26418;50.070;8.436;2023-11-22T08:55:35;101198.66;;;3.35;87.52
40730;BME280;26418;50.070;8.436;2023-11-22T08:58:01;101202.91;;;3.61;76.68
40730;BME280;26418;50.070;8.436;2023-11-22T09:00:27;101209.03;;;3.69;79.47
40730;BME280;26418;50.070;8.436;2023-11-22T09:02:54;101217.28;;;3.86;81.07
40730;BME280;26418;50.070;8.436;2023-11-22T09:05:22;101209.84;;;4.06;85.13
40730;BME280;26418;50.070;8.436;2023-11-22T09:07:48;101213.72;;;4.41;84.59
40730;BME280;26418;50.070;8.436;2023-11-22T09:10:14;101213.22;;;4.75;76.76
40730;BME280;26418;50.070;8.436;2023-11-22T09:12:41;101205.19;;;4.75;67.77
40730;BME280;26418;50.070;8.436;2023-11-22T09:15:09;101212.13;;;4.52;65.17
40730;BME280;26418;50.070;8.436;2023-11-22T09:17:38;101200.00;;;4.19;65.94
40730;BME280;26418;50.070;8.436;2023-11-22T09:20:11;101206.88;;;3.96;65.63
40730;BME280;26418;50.070;8.436;2023-11-22T09:22:44;101200.72;;;3.77;66.36
40730;BME280;26418;50.070;8.436;2023-11-22T09:25:14;101206.06;;;3.77;68.84
40730;BME280;26418;50.070;8.436;2023-11-22T09:27:42;101192.16;;;3.68;68.39
40730;BME280;26418;50.070;8.436;2023-11-22T09:30:08;101182.47;;;3.49;67.80
40730;BME280;26418;50.070;8.436;2023-11-22T09:32:43;101195.41;;;3.52;68.18
40730;BME280;26418;50.070;8.436;2023-11-22T09:35:08;101191.31;;;3.49;68.33
40730;BME280;26418;50.070;8.436;2023-11-22T09:37:34;101209.38;;;3.54;67.81
40730;BME280;26418;50.070;8.436;2023-11-22T09:40:00;101214.19;;;3.45;67.82
40730;BME280;26418;50.070;8.436;2023-11-22T09:42:26;101220.03;;;3.35;66.70
40730;BME280;26418;50.070;8.436;2023-11-22T09:44:52;101223.16;;;3.32;66.42
40730;BME280;26418;50.070;8.436;2023-11-22T09:47:18;101206.31;;;3.06;67.13
40730;BME280;26418;50.070;8.436;2023-11-22T09:49:46;101230.09;;;3.14;67.15
40730;BME280;26418;50.070;8.436;2023-11-22T09:52:16;101234.66;;;3.07;67.47
40730;BME280;26418;50.070;8.436;2023-11-22T09:54:45;101230.19;;;3.01;68.04
40730;BME280;26418;50.070;8.436;2023-11-22T09:57:11;101254.31;;;3.20;67.88
40730;BME280;26418;50.070;8.436;2023-11-22T09:59:39;101250.50;;;3.34;67.09
40730;BME280;26418;50.070;8.436;2023-11-22T10:02:06;101252.56;;;3.32;63.36
40730;BME280;26418;50.070;8.436;2023-11-22T10:04:33;101260.66;;;3.25;63.76
40730;BME280;26418;50.070;8.436;2023-11-22T10:07:00;101270.13;;;3.21;63.72
40730;BME280;26418;50.070;8.436;2023-11-22T10:09:26;101254.75;;;3.17;62.86
40730;BME280;26418;50.070;8.436;2023-11-22T10:12:01;101245.53;;;3.12;63.94
40730;BME280;26418;50.070;8.436;2023-11-22T10:14:27;101238.31;;;3.13;63.55
40730;BME280;26418;50.070;8.436;2023-11-22T10:16:59;101234.50;;;3.02;62.87
40730;BME280;26418;50.070;8.436;2023-11-22T10:19:26;101256.41;;;3.11;63.39
40730;BME280;26418;50.070;8.436;2023-11-22T10:22:11;101258.66;;;3.14;62.59
40730;BME280;26418;50.070;8.436;2023-11-22T10:24:43;101269.75;;;3.18;62.62
40730;BME280;26418;50.070;8.436;2023-11-22T10:27:10;101261.19;;;3.09;62.76
40730;BME280;26418;50.070;8.436;2023-11-22T10:29:36;101256.88;;;3.08;63.50
40730;BME280;26418;50.070;8.436;2023-11-22T10:32:03;101250.63;;;3.21;62.54
40730;BME280;26418;50.070;8.436;2023-11-22T10:34:29;101241.59;;;3.15;62.82
40730;BME280;26418;50.070;8.436;2023-11-22T10:36:55;101249.00;;;3.13;62.12
40730;BME280;26418;50.070;8.436;2023-11-22T10:39:21;101247.97;;;3.14;63.27
40730;BME280;26418;50.070;8.436;2023-11-22T10:41:48;101239.91;;;3.21;63.04
40730;BME280;26418;50.070;8.436;2023-11-22T10:44:16;101245.13;;;3.34;61.89
40730;BME280;26418;50.070;8.436;2023-11-22T10:46:44;101236.91;;;3.36;60.88
40730;BME280;26418;50.070;8.436;2023-11-22T10:49:10;101262.16;;;3.40;61.24
40730;BME280;26418;50.070;8.436;2023-11-22T10:51:39;101274.50;;;3.41;66.42
40730;BME280;26418;50.070;8.436;2023-11-22T10:54:06;101281.75;;;3.59;64.86
40730;BME280;26418;50.070;8.436;2023-11-22T10:56:43;101286.00;;;3.67;63.23
40730;BME280;26418;50.070;8.436;2023-11-22T10:59:15;101287.75;;;3.80;61.49
40730;BME280;26418;50.070;8.436;2023-11-22T11:01:47;101294.66;;;3.87;62.12
40730;BME280;26418;50.070;8.436;2023-11-22T11:04:23;101300.25;;;4.04;61.92
40730;BME280;26418;50.070;8.436;2023-11-22T11:06:52;101289.25;;;4.13;59.84
40730;BME280;26418;50.070;8.436;2023-11-22T11:09:22;101290.66;;;4.15;59.94
40730;BME280;26418;50.070;8.436;2023-11-22T11:11:50;101288.88;;;4.28;66.97
40730;BME280;26418;50.070;8.436;2023-11-22T11:14:16;101293.63;;;4.44;63.21
40730;BME280;26418;50.070;8.436;2023-11-22T11:16:43;101291.31;;;4.48;61.23
40730;BME280;26418;50.070;8.436;2023-11-22T11:19:15;101291.44;;;4.53;59.67
40730;BME280;26418;50.070;8.436;2023-11-22T11:21:43;101279.88;;;4.40;59.63
40730;BME280;26418;50.070;8.436;2023-11-22T11:24:08;101285.06;;;4.35;58.95
40730;BME280;26418;50.070;8.436;2023-11-22T11:26:34;101284.84;;;4.37;60.48
40730;BME280;26418;50.070;8.436;2023-11-22T11:29:03;101286.63;;;4.43;62.82
40730;BME280;26418;50.070;8.436;2023-11-22T11:31:33;101286.91;;;4.53;63.25
40730;BME280;26418;50.070;8.436;2023-11-22T11:34:05;101302.47;;;4.63;59.49
40730;BME280;26418;50.070;8.436;2023-11-22T11:36:32;101307.44;;;4.60;59.12
40730;BME280;26418;50.070;8.436;2023-11-22T11:38:59;101316.75;;;4.57;59.40
40730;BME280;26418;50.070;8.436;2023-11-22T11:41:31;101311.63;;;4.55;58.58
40730;BME280;26418;50.070;8.436;2023-11-22T11:44:03;101312.75;;;4.48;58.78
40730;BME280;26418;50.070;8.436;2023-11-22T11:46:32;101312.97;;;4.46;59.67
40730;BME280;26418;50.070;8.436;2023-11-22T11:48:58;101320.78;;;4.48;60.12
40730;BME280;26418;50.070;8.436;2023-11-22T11:51:28;101302.03;;;4.48;59.97
40730;BME280;26418;50.070;8.436;2023-11-22T11:53:56;101299.25;;;4.54;59.50
40730;BME280;26418;50.070;8.436;2023-11-22T11:56:23;101294.06;;;4.60;59.84
40730;BME280;26418;50.070;8.436;2023-11-22T11:58:51;101296.06;;;4.64;59.91
40730;BME280;26418;50.070;8.436;2023-11-22T12:01:18;101282.75;;;4.57;59.54
40730;BME280;26418;50.070;8.436;2023-11-22T12:03:47;101278.94;;;4.65;59.81
40730;BME280;26418;50.070;8.436;2023-11-22T12:06:16;101272.75;;;4.65;58.48
40730;BME280;26418;50.070;8.436;2023-11-22T12:08:42;101242.28;;;4.47;58.67
40730;BME280;26418;50.070;8.436;2023-11-22T12:11:08;101250.16;;;4.61;59.43
40730;BME280;26418;50.070;8.436;2023-11-22T12:13:34;101248.78;;;4.70;58.07
40730;BME280;26418;50.070;8.436;2023-11-22T12:16:04;101257.38;;;4.72;58.90
40730;BME280;26418;50.070;8.436;2023-11-22T12:18:40;101258.03;;;4.55;58.19
40730;BME280;26418;50.070;8.436;2023-11-22T12:21:06;101254.66;;;4.60;59.46
40730;BME280;26418;50.070;8.436;2023-11-22T12:23:32;101254.94;;;4.70;59.55
40730;BME280;26418;50.070;8.436;2023-11-22T12:25:58;101247.63;;;4.78;59.49
40730;BME280;26418;50.070;8.436;2023-11-22T12:28:26;101252.38;;;4.76;58.51
40730;BME280;26418;50.070;8.436;2023-11-22T12:30:52;101262.91;;;4.77;59.49
40730;BME280;26418;50.070;8.436;2023-11-22T12:33:18;101274.53;;;4.83;59.96
40730;BME280;26418;50.070;8.436;2023-11-22T12:35:46;101265.38;;;4.91;60.06
40730;BME280;26418;50.070;8.436;2023-11-22T12:38:12;101243.25;;;4.95;59.87
40730;BME280;26418;50.070;8.436;2023-11-22T12:40:38;101264.81;;;5.00;60.15
40730;BME280;26418;50.070;8.436;2023-11-22T12:43:04;101262.13;;;5.00;58.34
40730;BME280;26418;50.070;8.436;2023-11-22T12:45:30;101254.78;;;4.96;58.26
40730;BME280;26418;50.070;8.436;2023-11-22T12:47:59;101244.03;;;4.84;58.37
40730;BME280;26418;50.070;8.436;2023-11-22T12:52:58;101265.81;;;4.87;59.59
40730;BME280;26418;50.070;8.436;2023-11-22T12:55:24;101261.91;;;4.90;58.90
40730;BME280;26418;50.070;8.436;2023-11-22T12:57:58;101266.09;;;4.98;59.80
40730;BME280;26418;50.070;8.436;2023-11-22T13:00:29;101265.31;;;5.09;62.18